Alcolu, SC

1:49 PM EDT on July 26, 2016 (GMT -0400)
USC Sumter | | Change Station

Elev 165 ft 33.93 °N, 80.37 °W | Updated 4 minutes ago

Clear
Clear
100.4 °F
Feels Like 110 °F
N
3.0
Wind Variable Wind from North
Gusts 11.0 mph

Today
High -- | Low -- °F
--% Chance of Precip.
Yesterday
High -- | Low -- °F
Precip. -- in
Pressure 30.02 in
Visibility 10.0 miles
Clouds Clear
Heat Index 110 °F
Dew Point 72 °F
Humidity 40%
Rainfall Not available.
Snow Depth Not available.
6:28 AM 8:25 PM
Waning Gibbous, 52% visible
METAR KSMS 261735Z AUTO 00000KT 10SM CLR 35/24 A3002 RMK AO2
Pressure 30.02 in
Visibility 10.0 miles
Clouds Clear
Heat Index 110 °F
Dew Point 72 °F
Humidity 40%
Rainfall Not available.
Snow Depth Not available.
6:28 AM 8:25 PM
Waning Gibbous, 52% visible
METAR KSMS 261735Z AUTO 00000KT 10SM CLR 35/24 A3002 RMK AO2

10-Day Weather Forecast

Almanac

Astronomy

Jul. 26, 2016 Rise Set
Actual Time
Civil Twilight
Nautical Twilight
Astronomical Twilight
Moon
Length of Visible Light
Length of Day
Tomorrow will be .
, % of the Moon is Illuminated

Today's Extremes

State Highs State Lows

Community

WunderPhotos

Upload Photos

1,927,650 photos uploaded!

WunderBlog® & News

Nearby

Air Quality

  Air Quality AQ Index Pollutant
Not available.

Snow Depth

Station Depth Elevation

Earthquake Activity

City Distance Mag. Time & Date
Minimum magnitude displayed is 2.5.

Coastal Water Temperatures

Place Temperature

Stations

Nearby Weather Stations

Station Location Temp. Windchill Dew Point Humidity Wind Precip. Elev Updated Type
                   

Watches & Warnings

There are currently no watches in effect.